createdAt,value
2023-05-05T00:01:03.540Z,54.29
2023-05-05T00:03:31.235Z,54.30
2023-05-05T00:05:58.947Z,54.29
2023-05-05T00:08:26.670Z,54.55
2023-05-05T00:10:54.718Z,55.19
2023-05-05T00:13:23.084Z,55.34
2023-05-05T00:15:52.571Z,55.32
2023-05-05T00:18:21.436Z,55.80
2023-05-05T00:20:49.257Z,55.75
2023-05-05T00:23:17.444Z,56.15
2023-05-05T00:25:44.808Z,56.26
2023-05-05T00:28:14.323Z,56.55
2023-05-05T00:30:42.165Z,57.19
2023-05-05T00:33:09.765Z,57.13
2023-05-05T00:35:37.170Z,57.37
2023-05-05T00:38:05.174Z,57.71
2023-05-05T00:40:32.513Z,58.15
2023-05-05T00:43:00.147Z,58.56
2023-05-05T00:45:27.774Z,58.13
2023-05-05T00:47:59.528Z,57.97
2023-05-05T00:50:30.452Z,57.94
2023-05-05T00:53:04.514Z,57.52
2023-05-05T00:55:34.024Z,57.90
2023-05-05T00:58:04.140Z,58.51
2023-05-05T01:00:31.711Z,58.43
2023-05-05T01:03:00.025Z,58.96
2023-05-05T01:05:37.348Z,58.65
2023-05-05T01:08:19.527Z,59.16
2023-05-05T01:11:03.267Z,58.86
2023-05-05T01:13:53.449Z,59.08
2023-05-05T01:16:27.711Z,59.80
2023-05-05T01:19:17.253Z,60.61
2023-05-05T01:21:53.640Z,60.54
2023-05-05T01:24:58.246Z,60.81
2023-05-05T01:27:49.620Z,61.15
2023-05-05T01:30:50.103Z,61.40
2023-05-05T01:33:27.428Z,60.99
2023-05-05T01:36:06.725Z,61.24
2023-05-05T01:38:42.793Z,61.24
2023-05-05T01:41:10.190Z,61.14
2023-05-05T01:43:39.852Z,60.95
2023-05-05T01:46:09.044Z,61.48
2023-05-05T01:48:38.941Z,61.43
2023-05-05T01:51:10.566Z,61.42
2023-05-05T01:53:39.871Z,61.80
2023-05-05T01:56:09.813Z,61.48
2023-05-05T01:58:38.827Z,60.75
2023-05-05T02:01:06.901Z,60.87
2023-05-05T02:03:37.288Z,61.01
2023-05-05T02:06:08.492Z,61.46
2023-05-05T02:08:39.537Z,61.24
2023-05-05T02:11:11.648Z,61.45
2023-05-05T02:13:42.864Z,60.56
2023-05-05T02:16:11.722Z,60.13
2023-05-05T02:18:39.739Z,60.21
2023-05-05T02:21:08.128Z,60.51
2023-05-05T02:23:36.441Z,61.21
2023-05-05T02:26:08.376Z,60.90
2023-05-05T02:28:51.725Z,61.48
2023-05-05T02:31:24.101Z,61.51
2023-05-05T02:33:53.431Z,61.32
2023-05-05T02:36:27.919Z,61.04
2023-05-05T02:39:01.313Z,60.92
2023-05-05T02:41:33.091Z,60.77
2023-05-05T02:44:04.416Z,61.26
2023-05-05T02:46:32.665Z,61.30
2023-05-05T02:49:00.123Z,61.44
2023-05-05T02:51:27.767Z,61.90
2023-05-05T02:53:55.574Z,61.99
2023-05-05T02:56:48.979Z,61.92
2023-05-05T02:59:47.470Z,61.93
2023-05-05T03:02:39.421Z,61.79
2023-05-05T03:05:41.345Z,61.91
2023-05-05T03:08:18.555Z,62.10
2023-05-05T03:11:00.452Z,62.32
2023-05-05T03:13:30.183Z,62.31
2023-05-05T03:16:00.169Z,62.20
2023-05-05T03:18:31.452Z,62.20
2023-05-05T03:21:07.995Z,62.78
2023-05-05T03:23:36.692Z,62.43
2023-05-05T03:26:04.026Z,62.41
2023-05-05T03:28:31.752Z,62.21
2023-05-05T03:30:59.171Z,62.29
2023-05-05T03:33:26.678Z,61.99
2023-05-05T03:35:53.924Z,62.16
2023-05-05T03:38:21.447Z,62.11
2023-05-05T03:40:48.744Z,62.80
2023-05-05T03:43:16.389Z,62.59
2023-05-05T03:45:43.675Z,62.96
2023-05-05T03:48:11.258Z,63.92
2023-05-05T03:50:38.489Z,63.76
2023-05-05T03:53:06.030Z,63.32
2023-05-05T03:55:33.357Z,63.46
2023-05-05T03:58:00.994Z,63.47
2023-05-05T04:00:28.276Z,63.47
2023-05-05T04:02:56.346Z,63.59
2023-05-05T04:05:23.776Z,63.78
2023-05-05T04:07:51.350Z,63.88
2023-05-05T04:10:18.714Z,63.87
2023-05-05T04:12:46.544Z,63.85
2023-05-05T04:15:13.874Z,63.73
2023-05-05T04:17:41.410Z,63.44
2023-05-05T04:20:09.811Z,63.37
2023-05-05T04:22:37.720Z,62.96
2023-05-05T04:25:05.589Z,63.03
2023-05-05T04:27:33.231Z,62.75
2023-05-05T04:30:00.494Z,62.40
2023-05-05T04:32:28.423Z,61.28
2023-05-05T04:34:55.895Z,60.88
2023-05-05T04:37:23.587Z,60.70
2023-05-05T04:39:50.954Z,62.13
2023-05-05T04:42:18.579Z,61.53
2023-05-05T04:44:46.177Z,59.85
2023-05-05T04:47:14.742Z,58.91
2023-05-05T04:49:42.127Z,58.72
2023-05-05T04:52:11.921Z,57.93
2023-05-05T04:54:39.240Z,57.85
2023-05-05T04:57:07.416Z,57.72
2023-05-05T04:59:35.328Z,57.61
2023-05-05T05:02:03.298Z,57.76
2023-05-05T05:04:31.176Z,57.32
2023-05-05T05:06:59.360Z,57.00
2023-05-05T05:09:26.785Z,56.64
2023-05-05T05:11:54.350Z,56.84
2023-05-05T05:14:21.964Z,56.56
2023-05-05T05:16:52.377Z,56.35
2023-05-05T05:19:19.898Z,56.02
2023-05-05T05:21:47.436Z,56.19
2023-05-05T05:24:14.670Z,56.28
2023-05-05T05:26:42.407Z,56.37
2023-05-05T05:29:09.658Z,55.97
2023-05-05T05:31:37.273Z,55.22
2023-05-05T05:34:04.516Z,55.14
2023-05-05T05:36:32.214Z,54.82
2023-05-05T05:38:59.440Z,54.58
2023-05-05T05:41:26.938Z,54.18
2023-05-05T05:43:54.214Z,54.38
2023-05-05T05:46:21.885Z,54.23
2023-05-05T05:48:49.203Z,54.37
2023-05-05T05:51:16.784Z,54.73
2023-05-05T05:53:44.034Z,54.01
2023-05-05T05:56:11.524Z,54.30
2023-05-05T05:58:39.195Z,54.39
2023-05-05T06:01:06.863Z,54.32
2023-05-05T06:03:34.626Z,54.09
2023-05-05T06:06:02.388Z,53.89
2023-05-05T06:08:29.648Z,53.78
2023-05-05T06:10:57.190Z,53.36
2023-05-05T06:13:25.331Z,52.79
2023-05-05T06:15:52.902Z,52.58
2023-05-05T06:18:20.289Z,51.37
2023-05-05T06:20:52.497Z,50.45
2023-05-05T06:23:19.900Z,50.75
2023-05-05T06:25:47.713Z,49.49
2023-05-05T06:28:14.990Z,49.33
2023-05-05T06:30:42.536Z,49.37
2023-05-05T06:33:09.775Z,48.86
2023-05-05T06:35:37.379Z,48.67
2023-05-05T06:38:04.597Z,48.87
2023-05-05T06:40:32.142Z,48.96
2023-05-05T06:42:59.344Z,48.36
2023-05-05T06:45:27.033Z,48.40
2023-05-05T06:47:54.312Z,46.87
2023-05-05T06:50:22.124Z,46.40
2023-05-05T06:52:49.345Z,45.76
2023-05-05T06:55:17.093Z,45.56
2023-05-05T06:57:44.322Z,45.12
2023-05-05T07:00:13.976Z,45.69
2023-05-05T07:02:41.937Z,46.09
2023-05-05T07:05:10.653Z,46.32
2023-05-05T07:07:38.993Z,46.19
2023-05-05T07:10:07.726Z,45.56
2023-05-05T07:12:36.082Z,44.38
2023-05-05T07:15:15.401Z,42.99
2023-05-05T07:17:51.164Z,44.19
2023-05-05T07:20:19.074Z,42.75
2023-05-05T07:22:46.349Z,42.86
2023-05-05T07:25:13.825Z,42.08
2023-05-05T07:27:41.304Z,40.91
2023-05-05T07:30:13.211Z,40.16
2023-05-05T07:32:42.748Z,40.80
2023-05-05T07:35:10.957Z,39.38
2023-05-05T07:37:38.261Z,39.85
2023-05-05T07:40:07.146Z,39.37
2023-05-05T07:42:34.532Z,38.35
2023-05-05T07:45:02.435Z,38.54
2023-05-05T07:47:29.797Z,37.53
2023-05-05T07:49:58.008Z,37.50
2023-05-05T07:52:43.729Z,36.99
2023-05-05T07:55:12.502Z,36.54
2023-05-05T07:57:39.796Z,35.86
2023-05-05T08:00:09.572Z,35.76
2023-05-05T08:02:37.265Z,35.69
2023-05-05T08:05:05.335Z,35.31
2023-05-05T08:07:32.742Z,36.61
2023-05-05T08:10:00.270Z,35.35
2023-05-05T08:12:27.536Z,34.73
2023-05-05T08:14:55.059Z,34.05
2023-05-05T08:17:22.386Z,34.53
2023-05-05T08:19:53.042Z,34.76
2023-05-05T08:22:22.204Z,34.73
2023-05-05T08:24:49.723Z,34.84
2023-05-05T08:27:17.050Z,34.40
2023-05-05T08:29:44.601Z,35.00
2023-05-05T08:32:11.851Z,34.29
2023-05-05T08:34:39.302Z,33.54
2023-05-05T08:37:06.568Z,33.58
2023-05-05T08:39:34.058Z,33.14
2023-05-05T08:42:02.488Z,33.13
2023-05-05T08:44:30.034Z,33.23
2023-05-05T08:47:00.631Z,33.40
2023-05-05T08:49:43.923Z,32.66
2023-05-05T08:52:14.601Z,31.84
2023-05-05T08:54:54.842Z,31.32
2023-05-05T08:57:34.924Z,30.65
2023-05-05T09:00:04.345Z,31.26
2023-05-05T09:02:34.483Z,31.50
2023-05-05T09:05:05.460Z,30.80
2023-05-05T09:07:34.860Z,30.78
2023-05-05T09:10:05.849Z,31.56
2023-05-05T09:12:33.324Z,32.29
2023-05-05T09:15:03.687Z,31.01
2023-05-05T09:17:31.778Z,30.66
2023-05-05T09:20:14.206Z,27.52
2023-05-05T09:22:44.679Z,22.47
2023-05-05T09:25:16.126Z,18.27
2023-05-05T09:27:49.426Z,14.86
2023-05-05T09:30:29.761Z,12.37
2023-05-05T09:32:57.033Z,11.67
2023-05-05T09:35:24.576Z,10.83
2023-05-05T09:37:51.842Z,8.99
2023-05-05T09:40:22.346Z,8.15
2023-05-05T09:43:01.891Z,9.26
2023-05-05T09:45:29.425Z,8.88
2023-05-05T09:48:00.195Z,7.36
2023-05-05T09:50:31.155Z,10.05
2023-05-05T09:53:02.140Z,7.68
2023-05-05T09:55:33.599Z,6.43
2023-05-05T09:58:31.201Z,6.20
2023-05-05T10:01:01.394Z,5.69
2023-05-05T10:03:28.626Z,5.16
2023-05-05T10:05:59.110Z,4.81
2023-05-05T10:08:34.351Z,5.13
2023-05-05T10:11:06.993Z,4.55
2023-05-05T10:13:43.080Z,4.19
2023-05-05T10:16:13.297Z,3.47
2023-05-05T10:18:46.704Z,3.70
2023-05-05T10:21:21.786Z,3.75
2023-05-05T10:24:02.136Z,4.28
2023-05-05T10:26:40.898Z,3.26
2023-05-05T10:29:49.626Z,3.55
2023-05-05T10:32:56.830Z,2.79
2023-05-05T10:35:27.739Z,3.35
2023-05-05T10:37:57.826Z,3.68
2023-05-05T10:40:25.888Z,3.71
2023-05-05T10:42:55.708Z,4.31
2023-05-05T10:45:22.975Z,4.90
2023-05-05T10:47:53.195Z,4.63
2023-05-05T10:50:59.058Z,4.29
2023-05-05T10:53:36.794Z,6.51
2023-05-05T10:56:26.866Z,8.19
2023-05-05T10:59:00.055Z,9.34
2023-05-05T11:01:32.614Z,10.60
2023-05-05T11:04:23.869Z,11.64
2023-05-05T11:07:13.454Z,12.24
2023-05-05T11:10:03.926Z,14.28
2023-05-05T11:12:34.081Z,14.22
2023-05-05T11:15:31.766Z,15.22
2023-05-05T11:18:05.657Z,16.59
2023-05-05T11:20:37.708Z,16.95
2023-05-05T11:23:05.142Z,17.41
2023-05-05T11:25:42.233Z,18.65
2023-05-05T11:28:18.714Z,18.18
2023-05-05T11:30:55.443Z,18.07
2023-05-05T11:33:38.370Z,19.10
2023-05-05T11:36:07.464Z,19.84
2023-05-05T11:39:09.776Z,19.25
2023-05-05T11:42:31.808Z,20.40
2023-05-05T11:44:59.550Z,21.41
2023-05-05T11:47:29.295Z,21.51
2023-05-05T11:49:57.062Z,21.46
2023-05-05T11:52:26.481Z,21.07
2023-05-05T11:54:53.943Z,20.82
2023-05-05T11:57:29.185Z,21.59
2023-05-05T12:00:04.568Z,20.72
2023-05-05T12:02:32.414Z,20.70
2023-05-05T12:05:01.752Z,21.11
2023-05-05T12:07:33.271Z,20.85
2023-05-05T12:10:01.635Z,21.33
2023-05-05T12:12:40.969Z,21.99
2023-05-05T12:15:09.738Z,21.79
2023-05-05T12:17:40.888Z,22.89
2023-05-05T12:20:10.249Z,22.76
2023-05-05T12:22:38.893Z,22.91
2023-05-05T12:25:09.072Z,23.08
2023-05-05T12:27:36.775Z,23.27
2023-05-05T12:30:16.108Z,23.63
2023-05-05T12:32:44.614Z,23.47
2023-05-05T12:35:13.769Z,23.35
2023-05-05T12:37:43.076Z,23.44
2023-05-05T12:40:45.578Z,23.81
2023-05-05T12:43:35.369Z,23.10
2023-05-05T12:46:14.017Z,23.60
2023-05-05T12:48:46.403Z,23.83
2023-05-05T12:51:25.691Z,22.23
2023-05-05T12:54:11.476Z,22.83
2023-05-05T12:56:47.777Z,22.47
2023-05-05T12:59:24.505Z,22.64
2023-05-05T13:01:54.088Z,23.58
2023-05-05T13:04:26.303Z,24.07
2023-05-05T13:07:13.888Z,22.39
2023-05-05T13:09:42.495Z,22.97
2023-05-05T13:12:12.971Z,23.33
2023-05-05T13:14:41.966Z,23.42
2023-05-05T13:17:11.040Z,23.03
2023-05-05T13:19:42.814Z,23.22
2023-05-05T13:22:10.504Z,23.42
2023-05-05T13:24:56.575Z,23.25
2023-05-05T13:27:23.933Z,23.51
2023-05-05T13:29:51.563Z,23.14
2023-05-05T13:32:18.959Z,22.33
2023-05-05T13:34:46.698Z,23.09
2023-05-05T13:37:14.024Z,23.79
2023-05-05T13:39:41.684Z,24.02
2023-05-05T13:42:13.920Z,23.64
2023-05-05T13:44:41.552Z,24.18
2023-05-05T13:47:08.973Z,23.77
2023-05-05T13:49:36.633Z,23.16
2023-05-05T13:52:04.025Z,23.78
2023-05-05T13:54:37.651Z,24.12
2023-05-05T13:57:05.032Z,24.16
2023-05-05T13:59:32.681Z,24.54
2023-05-05T14:02:01.099Z,24.58
2023-05-05T14:04:28.699Z,24.62
2023-05-05T14:06:58.300Z,24.66
2023-05-05T14:09:25.846Z,24.63
2023-05-05T14:11:53.624Z,24.42
2023-05-05T14:14:21.115Z,24.68
2023-05-05T14:16:50.256Z,24.98
2023-05-05T14:19:18.084Z,24.91
2023-05-05T14:21:45.302Z,25.67
2023-05-05T14:24:12.821Z,25.58
2023-05-05T14:26:40.264Z,26.71
2023-05-05T14:29:07.908Z,26.04
2023-05-05T14:31:36.308Z,25.65
2023-05-05T14:34:04.666Z,26.23
2023-05-05T14:36:31.935Z,26.28
2023-05-05T14:38:59.459Z,26.51
2023-05-05T14:41:26.847Z,26.58
2023-05-05T14:43:54.422Z,26.62
2023-05-05T14:46:21.788Z,25.71
2023-05-05T14:48:49.416Z,25.86
2023-05-05T14:51:16.908Z,25.95
2023-05-05T14:53:44.553Z,25.92
2023-05-05T14:56:12.008Z,26.55
2023-05-05T14:58:39.776Z,26.70
2023-05-05T15:01:07.396Z,26.01
2023-05-05T15:03:35.194Z,26.36
2023-05-05T15:06:02.573Z,26.63
2023-05-05T15:08:30.157Z,27.04
2023-05-05T15:10:57.408Z,26.80
2023-05-05T15:13:25.094Z,26.73
2023-05-05T15:15:52.568Z,26.60
2023-05-05T15:18:20.191Z,26.44
2023-05-05T15:20:47.496Z,26.84
2023-05-05T15:23:15.746Z,26.80
2023-05-05T15:25:43.297Z,27.00
2023-05-05T15:28:11.048Z,27.30
2023-05-05T15:30:38.281Z,27.08
2023-05-05T15:33:06.017Z,26.91
2023-05-05T15:35:33.486Z,26.90
2023-05-05T15:38:01.029Z,27.06
2023-05-05T15:40:28.605Z,27.12
2023-05-05T15:42:56.338Z,27.22
2023-05-05T15:45:23.939Z,27.16
2023-05-05T15:47:52.930Z,26.88
2023-05-05T15:50:20.603Z,26.99
2023-05-05T15:52:49.971Z,26.98
2023-05-05T15:55:17.696Z,26.87
2023-05-05T15:57:45.257Z,27.60
2023-05-05T16:00:13.678Z,27.55
2023-05-05T16:02:41.330Z,27.65
2023-05-05T16:05:09.733Z,27.99
2023-05-05T16:07:37.916Z,28.19
2023-05-05T16:10:06.056Z,28.33
2023-05-05T16:12:33.717Z,28.64
2023-05-05T16:15:01.172Z,28.76
2023-05-05T16:17:28.812Z,28.41
2023-05-05T16:19:56.013Z,28.68
2023-05-05T16:22:23.889Z,29.31
2023-05-05T16:24:51.196Z,28.80
2023-05-05T16:27:18.766Z,29.34
2023-05-05T16:29:46.056Z,29.19
2023-05-05T16:32:13.638Z,28.73
2023-05-05T16:34:41.713Z,28.87
2023-05-05T16:37:09.238Z,29.19
2023-05-05T16:39:40.323Z,28.92
2023-05-05T16:42:08.295Z,28.94
2023-05-05T16:44:35.668Z,29.44
2023-05-05T16:47:03.254Z,29.65
2023-05-05T16:49:30.463Z,29.64
2023-05-05T16:51:58.383Z,30.25
2023-05-05T16:54:25.657Z,30.65
2023-05-05T16:56:53.858Z,30.89
2023-05-05T16:59:21.212Z,30.44
2023-05-05T17:01:50.284Z,30.86
2023-05-05T17:04:17.602Z,30.93
2023-05-05T17:06:45.235Z,31.05
2023-05-05T17:09:12.670Z,31.23
2023-05-05T17:11:40.234Z,30.71
2023-05-05T17:14:07.537Z,31.09
2023-05-05T17:16:35.157Z,31.07
2023-05-05T17:19:02.408Z,31.35
2023-05-05T17:21:29.988Z,31.03
2023-05-05T17:23:57.323Z,31.20
2023-05-05T17:26:25.130Z,30.88
2023-05-05T17:28:52.399Z,31.16
2023-05-05T17:31:19.929Z,31.31
2023-05-05T17:33:47.219Z,31.71
2023-05-05T17:36:14.749Z,31.60
2023-05-05T17:38:42.066Z,31.78
2023-05-05T17:41:09.629Z,32.26
2023-05-05T17:43:36.824Z,32.03
2023-05-05T17:46:04.536Z,32.03
2023-05-05T17:48:31.778Z,32.44
2023-05-05T17:50:59.381Z,32.38
2023-05-05T17:53:26.656Z,32.74
2023-05-05T17:55:54.703Z,32.96
2023-05-05T17:58:21.952Z,33.20
2023-05-05T18:00:49.557Z,33.43
2023-05-05T18:03:18.352Z,33.49
2023-05-05T18:05:46.258Z,33.70
2023-05-05T18:08:13.551Z,33.71
2023-05-05T18:10:41.163Z,34.04
2023-05-05T18:13:08.466Z,33.85
2023-05-05T18:15:36.054Z,34.22
2023-05-05T18:18:03.538Z,34.22
2023-05-05T18:20:31.107Z,34.77
2023-05-05T18:22:58.482Z,34.50
2023-05-05T18:25:26.258Z,34.86
2023-05-05T18:27:53.550Z,35.13
2023-05-05T18:30:21.172Z,35.21
2023-05-05T18:32:49.006Z,35.48
2023-05-05T18:35:16.874Z,35.46
2023-05-05T18:37:44.150Z,35.65
2023-05-05T18:40:12.307Z,35.80
2023-05-05T18:42:39.738Z,35.84
2023-05-05T18:45:09.218Z,35.95
2023-05-05T18:47:39.169Z,36.24
2023-05-05T18:50:08.507Z,36.18
2023-05-05T18:52:36.050Z,36.21
2023-05-05T18:55:04.130Z,36.19
2023-05-05T18:57:31.472Z,36.33
2023-05-05T18:59:59.032Z,36.12
2023-05-05T19:02:26.239Z,36.65
2023-05-05T19:04:53.972Z,36.78
2023-05-05T19:07:31.615Z,36.79
2023-05-05T19:10:04.335Z,37.09
2023-05-05T19:12:31.801Z,37.44
2023-05-05T19:14:59.430Z,37.42
2023-05-05T19:17:26.763Z,37.73
2023-05-05T19:19:54.372Z,37.24
2023-05-05T19:22:23.569Z,37.56
2023-05-05T19:24:51.107Z,37.61
2023-05-05T19:27:18.653Z,37.60
2023-05-05T19:29:49.231Z,37.62
2023-05-05T19:32:16.963Z,37.81
2023-05-05T19:34:44.723Z,37.68
2023-05-05T19:37:12.137Z,37.95
2023-05-05T19:39:39.750Z,37.80
2023-05-05T19:42:07.849Z,37.55
2023-05-05T19:44:35.339Z,37.41
2023-05-05T19:47:02.616Z,37.44
2023-05-05T19:49:30.144Z,37.25
2023-05-05T19:51:59.088Z,37.60
2023-05-05T19:54:28.933Z,37.28
2023-05-05T19:56:57.423Z,37.54
2023-05-05T19:59:25.072Z,38.03
2023-05-05T20:01:52.345Z,37.95
2023-05-05T20:04:19.976Z,38.06
2023-05-05T20:06:47.257Z,38.13
2023-05-05T20:09:15.335Z,38.60
2023-05-05T20:11:42.612Z,38.64
2023-05-05T20:14:10.372Z,38.95
2023-05-05T20:16:37.670Z,38.94
2023-05-05T20:19:05.465Z,39.07
2023-05-05T20:21:34.335Z,38.91
2023-05-05T20:24:01.899Z,39.20
2023-05-05T20:26:29.134Z,39.38
2023-05-05T20:28:56.698Z,39.35
2023-05-05T20:31:24.064Z,39.51
2023-05-05T20:33:51.687Z,39.55
2023-05-05T20:36:19.205Z,39.57
2023-05-05T20:38:46.809Z,39.87
2023-05-05T20:41:14.011Z,39.97
2023-05-05T20:43:41.600Z,40.23
2023-05-05T20:46:13.075Z,40.47
2023-05-05T20:48:42.921Z,40.38
2023-05-05T20:51:10.728Z,40.46
2023-05-05T20:53:38.287Z,40.45
2023-05-05T20:56:08.693Z,40.47
2023-05-05T20:58:36.755Z,40.60
2023-05-05T21:01:04.040Z,40.73
2023-05-05T21:03:31.755Z,40.89
2023-05-05T21:05:59.007Z,40.91
2023-05-05T21:08:26.918Z,41.03
2023-05-05T21:10:54.140Z,41.29
2023-05-05T21:13:21.747Z,41.36
2023-05-05T21:15:50.447Z,41.32
2023-05-05T21:18:18.006Z,41.85
2023-05-05T21:20:45.213Z,41.75
2023-05-05T21:23:12.775Z,41.85
2023-05-05T21:25:40.246Z,42.02
2023-05-05T21:28:07.789Z,42.32
2023-05-05T21:30:35.152Z,42.28
2023-05-05T21:33:02.701Z,42.46
2023-05-05T21:35:30.053Z,42.91
2023-05-05T21:37:57.730Z,42.73
2023-05-05T21:40:25.013Z,43.00
2023-05-05T21:42:52.544Z,43.16
2023-05-05T21:45:20.455Z,43.38
2023-05-05T21:47:48.060Z,43.62
2023-05-05T21:50:15.368Z,43.78
2023-05-05T21:52:42.840Z,44.02
2023-05-05T21:55:11.113Z,44.29
2023-05-05T21:57:38.684Z,44.55
2023-05-05T22:00:07.986Z,44.74
2023-05-05T22:02:35.793Z,45.22
2023-05-05T22:05:03.080Z,45.40
2023-05-05T22:07:31.723Z,45.68
2023-05-05T22:10:00.269Z,46.03
2023-05-05T22:12:27.870Z,46.27
2023-05-05T22:14:55.213Z,46.55
2023-05-05T22:17:22.742Z,47.01
2023-05-05T22:19:50.671Z,47.13
2023-05-05T22:22:18.157Z,47.64
2023-05-05T22:24:45.498Z,48.45
2023-05-05T22:27:13.005Z,48.69
2023-05-05T22:29:40.416Z,48.94
2023-05-05T22:32:07.883Z,49.46
2023-05-05T22:34:35.806Z,49.60
2023-05-05T22:37:03.348Z,49.53
2023-05-05T22:39:30.677Z,49.59
2023-05-05T22:41:58.234Z,49.75
2023-05-05T22:44:25.483Z,50.25
2023-05-05T22:46:53.039Z,50.46
2023-05-05T22:49:20.423Z,50.80
2023-05-05T22:51:48.277Z,51.29
2023-05-05T22:54:15.667Z,51.45
2023-05-05T22:56:43.276Z,51.51
2023-05-05T22:59:10.645Z,51.79
2023-05-05T23:01:38.871Z,52.13
2023-05-05T23:04:06.574Z,52.35
2023-05-05T23:06:34.075Z,52.93
2023-05-05T23:09:01.286Z,53.24
2023-05-05T23:11:28.865Z,53.67
2023-05-05T23:13:56.067Z,53.73
2023-05-05T23:16:23.651Z,54.16
2023-05-05T23:18:50.879Z,54.13
2023-05-05T23:21:18.331Z,54.36
2023-05-05T23:23:45.740Z,54.43
2023-05-05T23:26:14.119Z,55.17
2023-05-05T23:28:41.676Z,55.00
2023-05-05T23:31:09.813Z,55.04
2023-05-05T23:33:37.112Z,55.23
2023-05-05T23:36:05.262Z,55.32
2023-05-05T23:38:32.464Z,55.29
2023-05-05T23:40:59.989Z,55.72
2023-05-05T23:43:27.222Z,55.68
2023-05-05T23:45:54.776Z,56.35
2023-05-05T23:48:22.104Z,56.88
2023-05-05T23:50:49.589Z,57.37
2023-05-05T23:53:16.771Z,57.90
2023-05-05T23:55:44.262Z,57.91
2023-05-05T23:58:11.552Z,57.98
